Time;durP1;ratioP1;P1;durP2;ratioP2;P2;SDS_P1;SDS_P2;PMS_P1;PMS_P2;Temp;Humidity;BMP_temperature;BMP_pressure;BME280_temperature;BME280_humidity;BME280_pressure;Samples;Min_cycle;Max_cycle;Signal;HPM_P1;HPM_P2
2022/09/29 00:00:20;;;;;;;9.80;7.55;;;;;;;9.22;71.36;97268.25;5100981;28;20023;-81
2022/09/29 00:02:46;;;;;;;9.77;7.32;;;;;;;9.19;72.77;97266.94;5107334;28;20029;-80
2022/09/29 00:05:11;;;;;;;11.82;7.45;;;;;;;8.93;72.13;97239.69;5109342;27;20056;-81
2022/09/29 00:07:36;;;;;;;9.45;6.68;;;;;;;9.18;72.05;97264.53;5092645;28;20027;-81
2022/09/29 00:10:03;;;;;;;10.73;7.05;;;;;;;9.18;71.91;97265.34;5109377;28;20154;-81
2022/09/29 00:12:29;;;;;;;10.40;7.50;;;;;;;9.05;71.74;97258.78;5108013;28;20030;-81
2022/09/29 00:14:54;;;;;;;10.60;7.78;;;;;;;9.07;71.47;97246.00;5102634;28;20811;-81
2022/09/29 00:17:19;;;;;;;11.02;8.18;;;;;;;9.15;71.30;97262.47;5101602;28;20448;-81
2022/09/29 00:19:45;;;;;;;10.52;8.13;;;;;;;9.12;71.35;97266.47;5105343;28;20066;-81
2022/09/29 00:22:10;;;;;;;11.43;8.55;;;;;;;9.05;71.76;97258.78;5105682;28;20487;-81
2022/09/29 00:24:36;;;;;;;10.45;7.25;;;;;;;8.98;71.57;97260.16;5089164;28;20467;-81
2022/09/29 00:27:01;;;;;;;9.40;7.53;;;;;;;8.94;71.58;97254.59;5103126;28;20119;-82
2022/09/29 00:29:27;;;;;;;11.80;8.25;;;;;;;8.96;71.72;97268.44;5101664;28;20070;-81
2022/09/29 00:31:52;;;;;;;11.48;7.25;;;;;;;8.92;72.63;97267.41;5085605;28;20049;-81
2022/09/29 00:34:17;;;;;;;10.73;7.55;;;;;;;8.91;71.74;97252.50;5109792;28;20491;-81
2022/09/29 00:36:43;;;;;;;13.07;8.07;;;;;;;8.99;71.92;97262.56;5110504;28;20040;-82
2022/09/29 00:39:08;;;;;;;12.02;8.27;;;;;;;9.02;72.00;97266.53;5105157;28;20035;-81
2022/09/29 00:41:35;;;;;;;13.10;8.10;;;;;;;9.00;71.86;97273.97;5072120;28;20072;-81
2022/09/29 00:44:25;;;;;;;13.38;8.63;;;;;;;8.85;71.51;97266.91;5107530;28;20068;-81
2022/09/29 00:47:03;;;;;;;11.52;8.48;;;;;;;8.67;72.02;97248.16;5106855;28;20913;-81
2022/09/29 00:49:43;;;;;;;12.00;8.68;;;;;;;8.67;72.67;97272.09;5107026;28;20032;-81
2022/09/29 00:52:19;;;;;;;14.73;11.02;;;;;;;8.27;73.16;97260.56;5107813;28;20070;-80
2022/09/29 00:54:49;;;;;;;17.05;11.05;;;;;;;7.81;73.62;97251.13;5111355;28;20023;-82
2022/09/29 00:57:18;;;;;;;23.65;13.82;;;;;;;7.29;76.05;97261.28;5107781;28;20391;-81
2022/09/29 01:00:04;;;;;;;22.50;14.45;;;;;;;6.38;78.86;97274.38;5110825;28;20467;-81
2022/09/29 01:02:32;;;;;;;16.70;10.27;;;;;;;6.68;79.19;97284.28;5102984;28;20042;-81
2022/09/29 01:04:59;;;;;;;14.70;9.55;;;;;;;7.35;77.56;97262.88;5106208;28;20613;-81
2022/09/29 01:07:26;;;;;;;15.77;9.27;;;;;;;7.79;75.27;97247.13;5085880;28;20431;-81
2022/09/29 01:09:54;;;;;;;12.35;8.65;;;;;;;8.34;72.94;97268.25;5109335;28;20035;-81
2022/09/29 01:12:20;;;;;;;11.13;8.50;;;;;;;8.48;72.44;97249.81;5098878;28;20024;-81
2022/09/29 01:14:46;;;;;;;12.10;8.68;;;;;;;8.66;72.53;97278.47;5107417;28;20526;-81
2022/09/29 01:17:11;;;;;;;12.60;8.57;;;;;;;8.61;72.49;97260.66;5106494;28;20041;-81
2022/09/29 01:20:11;;;;;;;13.93;8.95;;;;;;;8.59;71.95;97249.50;5106221;28;20031;-81
2022/09/29 01:22:58;;;;;;;13.73;8.65;;;;;;;8.74;71.65;97270.69;5119435;27;20027;-80
2022/09/29 01:25:48;;;;;;;13.15;8.20;;;;;;;8.69;71.38;97268.06;5103884;28;20023;-81
2022/09/29 01:28:19;;;;;;;12.13;8.52;;;;;;;8.72;71.73;97272.84;5100696;28;20020;-80
2022/09/29 01:31:00;;;;;;;12.63;9.20;;;;;;;8.64;71.71;97270.75;5107199;28;20051;-81
2022/09/29 01:33:59;;;;;;;10.48;8.18;;;;;;;8.43;71.54;97250.63;5106843;28;20027;-81
2022/09/29 01:37:01;;;;;;;14.80;9.25;;;;;;;8.66;71.45;97273.94;5091371;28;20244;-81
2022/09/29 01:39:32;;;;;;;11.20;8.15;;;;;;;8.59;71.83;97270.78;5104635;28;20027;-80
2022/09/29 01:42:11;;;;;;;14.68;9.10;;;;;;;8.62;71.17;97275.56;5103231;28;20031;-81
2022/09/29 01:45:01;;;;;;;14.45;8.60;;;;;;;8.53;71.40;97281.72;5103829;28;20019;-80
2022/09/29 01:47:44;;;;;;;13.45;8.63;;;;;;;8.47;71.65;97275.63;5102632;28;20073;-80
2022/09/29 01:50:16;;;;;;;20.98;12.65;;;;;;;7.28;73.87;97268.44;5098419;28;20082;-81
2022/09/29 01:52:45;;;;;;;13.30;8.48;;;;;;;8.18;72.39;97285.28;5101334;28;20023;-81
2022/09/29 01:55:15;;;;;;;15.13;9.20;;;;;;;8.20;72.21;97259.22;5100960;28;20073;-80
2022/09/29 01:57:49;;;;;;;14.75;10.20;;;;;;;8.28;71.32;97266.66;5107633;28;20030;-80
2022/09/29 02:00:20;;;;;;;17.73;12.00;;;;;;;6.74;75.47;97275.28;5101623;28;20341;-81
2022/09/29 02:02:57;;;;;;;17.65;12.05;;;;;;;6.66;77.74;97289.06;5101560;28;20023;-81
2022/09/29 02:05:45;;;;;;;21.52;13.18;;;;;;;6.67;75.51;97294.09;5104518;28;20035;-80
2022/09/29 02:08:33;;;;;;;23.40;13.35;;;;;;;6.19;78.26;97291.00;5103823;28;20028;-80
2022/09/29 02:11:05;;;;;;;18.05;10.48;;;;;;;6.34;76.81;97293.69;5101628;28;20038;-80
2022/09/29 02:13:37;;;;;;;14.48;9.68;;;;;;;6.82;77.68;97293.31;5094890;28;20085;-80
2022/09/29 02:16:08;;;;;;;21.67;14.15;;;;;;;6.39;76.49;97285.78;5103648;28;20035;-80
2022/09/29 02:18:43;;;;;;;12.93;9.13;;;;;;;6.35;77.69;97298.75;5100100;28;20403;-80
2022/09/29 02:21:08;;;;;;;12.10;8.57;;;;;;;7.67;74.54;97302.38;5102242;28;20032;-80
2022/09/29 02:23:33;;;;;;;13.38;9.27;;;;;;;8.06;72.77;97290.88;5104397;28;20051;-80
2022/09/29 02:25:59;;;;;;;11.38;8.73;;;;;;;7.87;72.60;97281.91;5102601;28;20114;-80
2022/09/29 02:28:25;;;;;;;16.15;8.77;;;;;;;7.96;72.19;97271.53;5102203;28;20027;-81
2022/09/29 02:30:51;;;;;;;11.50;8.63;;;;;;;7.79;73.57;97302.91;5101565;28;20027;-81
2022/09/29 02:33:18;;;;;;;19.00;12.00;;;;;;;6.31;76.50;97305.59;5108714;28;20027;-80
2022/09/29 02:35:55;;;;;;;12.40;8.90;;;;;;;7.54;74.10;97285.16;5107701;28;20474;-80
2022/09/29 02:38:35;;;;;;;11.73;8.38;;;;;;;7.93;72.84;97293.34;5104823;28;20432;-81
2022/09/29 02:41:14;;;;;;;17.45;12.07;;;;;;;6.88;73.93;97283.53;5103662;28;20020;-81
2022/09/29 02:43:56;;;;;;;11.43;8.95;;;;;;;6.35;76.86;97300.63;5103603;28;20028;-80
2022/09/29 02:46:42;;;;;;;14.32;8.10;;;;;;;7.63;73.22;97269.47;5100571;28;20479;-81
2022/09/29 02:49:29;;;;;;;12.65;9.55;;;;;;;7.73;72.42;97302.13;5103735;28;20023;-80
2022/09/29 02:52:10;;;;;;;12.60;7.57;;;;;;;7.96;72.04;97292.78;5101500;28;20080;-80
2022/09/29 02:55:04;;;;;;;12.63;8.30;;;;;;;7.43;73.93;97280.91;5104259;28;20062;-80
2022/09/29 02:57:48;;;;;;;17.17;12.75;;;;;;;6.29;76.96;97312.25;5103612;27;20110;-80
2022/09/29 03:00:16;;;;;;;13.50;8.90;;;;;;;7.25;75.54;97315.94;5107925;28;20035;-81
2022/09/29 03:02:42;;;;;;;25.13;14.00;;;;;;;5.75;78.03;97285.97;5106711;28;20443;-81
2022/09/29 03:05:11;;;;;;;13.05;9.50;;;;;;;6.51;79.91;97320.81;5103804;28;20463;-80
2022/09/29 03:07:37;;;;;;;12.23;8.73;;;;;;;7.49;75.14;97309.06;5085786;28;20129;-80
2022/09/29 03:10:04;;;;;;;10.85;7.97;;;;;;;7.84;73.81;97279.00;5108538;28;20046;-81
2022/09/29 03:12:29;;;;;;;13.02;8.48;;;;;;;7.93;73.77;97309.28;5105173;28;20028;-81
2022/09/29 03:14:55;;;;;;;13.95;8.35;;;;;;;7.65;74.21;97304.50;5108875;28;20031;-82
2022/09/29 03:17:20;;;;;;;13.30;10.15;;;;;;;6.67;77.49;97303.91;5103039;28;20036;-81
2022/09/29 03:19:46;;;;;;;11.05;8.45;;;;;;;7.80;75.00;97304.53;5107726;28;20483;-81
2022/09/29 03:22:11;;;;;;;12.60;9.30;;;;;;;7.75;73.40;97302.66;5085056;28;20035;-82
2022/09/29 03:24:36;;;;;;;12.43;8.38;;;;;;;7.54;75.00;97283.28;5105613;28;20019;-82
2022/09/29 03:27:03;;;;;;;11.70;8.18;;;;;;;8.04;73.52;97284.25;5088423;28;20072;-81
2022/09/29 03:29:28;;;;;;;14.13;8.30;;;;;;;8.09;73.09;97306.31;5087498;28;20471;-82
2022/09/29 03:31:54;;;;;;;19.02;12.90;;;;;;;6.95;76.63;97310.56;5105130;28;20036;-81
2022/09/29 03:34:19;;;;;;;19.35;13.57;;;;;;;6.56;77.80;97304.91;5086401;28;20040;-82
2022/09/29 03:36:44;;;;;;;12.77;8.48;;;;;;;7.24;76.79;97301.88;5088520;28;20031;-81
2022/09/29 03:39:10;;;;;;;12.52;8.27;;;;;;;7.96;73.70;97309.53;5110534;28;20028;-82
2022/09/29 03:41:35;;;;;;;11.95;7.90;;;;;;;7.46;74.11;97314.88;5069459;28;20063;-81
2022/09/29 03:44:01;;;;;;;12.15;7.88;;;;;;;7.34;74.76;97325.75;5105711;28;20015;-81
2022/09/29 03:46:26;;;;;;;10.73;8.15;;;;;;;7.54;74.20;97331.06;5087305;28;20036;-81
2022/09/29 03:48:52;;;;;;;10.35;7.75;;;;;;;7.82;73.54;97323.63;5100913;28;21844;-81
2022/09/29 03:51:17;;;;;;;11.88;8.57;;;;;;;7.32;75.35;97322.56;5118477;28;20035;-81
2022/09/29 03:53:42;;;;;;;12.52;8.27;;;;;;;8.02;72.72;97323.56;5098755;28;20406;-80
2022/09/29 03:56:08;;;;;;;11.43;7.88;;;;;;;8.09;72.75;97316.94;5102488;28;20478;-81
2022/09/29 03:58:33;;;;;;;;;;;;;;;8.07;72.76;97324.38;5071725;27;1101640;-82
2022/09/29 04:01:00;;;;;;;16.00;10.87;;;;;;;7.38;73.04;97336.66;5102654;28;19919;-79
2022/09/29 04:03:26;;;;;;;14.27;8.02;;;;;;;7.58;74.15;97342.75;5101243;28;20070;-79
2022/09/29 04:05:51;;;;;;;22.30;13.52;;;;;;;6.16;77.69;97345.28;5099085;28;20036;-79
2022/09/29 04:08:16;;;;;;;20.67;13.48;;;;;;;5.50;80.15;97346.69;5106817;27;20063;-79
2022/09/29 04:10:44;;;;;;;11.93;8.90;;;;;;;6.81;77.08;97328.88;5100657;27;20032;-79
2022/09/29 04:13:09;;;;;;;12.77;9.45;;;;;;;6.85;75.84;97326.47;5105252;28;21600;-79
2022/09/29 04:15:35;;;;;;;13.25;8.60;;;;;;;7.35;74.68;97330.03;5086455;28;20027;-79
2022/09/29 04:18:00;;;;;;;13.10;10.07;;;;;;;7.33;74.00;97339.31;5102526;28;20514;-79
2022/09/29 04:20:26;;;;;;;20.83;12.45;;;;;;;5.79;77.72;97340.00;5104926;27;20035;-79
2022/09/29 04:22:51;;;;;;;14.50;9.38;;;;;;;5.79;80.24;97342.63;5102872;28;20501;-79
2022/09/29 04:25:17;;;;;;;22.80;14.00;;;;;;;5.44;78.91;97331.00;5106442;28;20016;-79
2022/09/29 04:27:42;;;;;;;15.40;9.50;;;;;;;6.69;77.18;97330.94;5090301;28;20035;-79
2022/09/29 04:30:09;;;;;;;11.45;9.23;;;;;;;7.36;74.59;97349.41;5104829;28;20173;-79
2022/09/29 04:32:34;;;;;;;10.50;7.75;;;;;;;7.18;74.19;97340.09;5102247;28;20026;-79
2022/09/29 04:35:00;;;;;;;22.23;14.10;;;;;;;6.20;75.41;97354.34;5105416;28;21664;-81
2022/09/29 04:37:25;;;;;;;22.67;14.48;;;;;;;5.27;78.57;97336.41;5107857;28;20038;-81
2022/09/29 04:39:53;;;;;;;26.65;14.77;;;;;;;5.07;79.90;97362.66;5105640;28;20439;-80
2022/09/29 04:42:19;;;;;;;26.85;14.88;;;;;;;4.67;80.93;97331.34;5102352;28;20407;-81
2022/09/29 04:44:45;;;;;;;17.23;9.75;;;;;;;4.78;80.99;97354.19;5110107;28;20062;-78
2022/09/29 04:47:10;;;;;;;14.65;9.02;;;;;;;5.33;80.90;97361.84;5107310;28;20063;-79
2022/09/29 04:49:36;;;;;;;22.52;13.63;;;;;;;5.79;77.90;97353.22;5109437;28;20051;-79
2022/09/29 04:52:02;;;;;;;20.55;12.02;;;;;;;5.18;79.06;97367.81;5085427;28;20031;-78
2022/09/29 04:54:31;;;;;;;15.70;9.90;;;;;;;6.58;77.37;97369.88;5108658;28;20972;-79
2022/09/29 04:56:57;;;;;;;12.40;9.40;;;;;;;7.11;74.89;97354.66;5103783;28;20046;-79
2022/09/29 04:59:22;;;;;;;12.90;8.70;;;;;;;6.50;76.91;97357.13;5085852;28;20027;-78
2022/09/29 05:01:48;;;;;;;15.07;9.45;;;;;;;7.42;73.98;97359.75;5106296;28;20490;-79
2022/09/29 05:04:13;;;;;;;15.30;8.52;;;;;;;7.65;72.20;97352.31;5099926;28;20024;-79
2022/09/29 05:06:39;;;;;;;13.65;8.75;;;;;;;7.69;72.33;97348.09;5099961;28;20032;-79
2022/09/29 05:09:05;;;;;;;12.38;8.68;;;;;;;7.75;72.08;97354.97;5103000;28;20799;-79
2022/09/29 05:11:30;;;;;;;25.65;13.18;;;;;;;7.60;72.70;97373.56;5105971;28;20491;-79
2022/09/29 05:13:56;;;;;;;23.38;15.32;;;;;;;6.10;77.75;97380.75;5073153;28;20062;-80
2022/09/29 05:16:21;;;;;;;15.45;10.75;;;;;;;6.27;78.31;97373.41;5085518;28;20036;-80
2022/09/29 05:18:47;;;;;;;29.17;15.57;;;;;;;5.92;78.68;97367.91;5085685;28;20051;-81
2022/09/29 05:21:12;;;;;;;28.48;17.35;;;;;;;5.38;80.87;97391.00;5110459;28;20039;-80
2022/09/29 05:23:37;;;;;;;33.35;18.73;;;;;;;5.09;82.34;97387.81;5102516;28;20015;-80
2022/09/29 05:26:05;;;;;;;79.05;39.83;;;;;;;4.65;84.63;97364.34;5089249;28;20045;-80
2022/09/29 05:28:31;;;;;;;44.60;23.50;;;;;;;4.62;86.03;97396.53;5101387;27;20043;-80
2022/09/29 05:31:01;;;;;;;32.30;18.38;;;;;;;4.50;86.11;97378.94;5101283;28;20429;-80
2022/09/29 05:33:27;;;;;;;41.05;19.98;;;;;;;4.54;85.94;97382.69;5107120;28;20106;-80
2022/09/29 05:35:52;;;;;;;32.83;18.70;;;;;;;4.51;86.59;97377.09;5104365;28;20044;-80
2022/09/29 05:38:18;;;;;;;33.60;19.90;;;;;;;4.70;85.50;97354.59;5096552;28;20028;-81
2022/09/29 05:40:43;;;;;;;47.97;21.73;;;;;;;4.41;87.60;97377.00;5107458;28;20043;-81
2022/09/29 05:43:08;;;;;;;56.13;21.40;;;;;;;4.04;89.44;97378.59;5066742;28;20055;-80
2022/09/29 05:45:34;;;;;;;55.28;21.55;;;;;;;4.11;90.13;97390.56;5089381;28;20030;-80
2022/09/29 05:48:00;;;;;;;54.63;24.27;;;;;;;4.06;90.81;97369.41;5104941;28;20391;-80
2022/09/29 05:50:25;;;;;;;56.55;20.67;;;;;;;3.88;91.10;97396.06;5076127;28;20490;-80
2022/09/29 05:52:51;;;;;;;45.53;19.95;;;;;;;4.29;90.77;97377.09;5103874;28;20035;-80
2022/09/29 05:55:17;;;;;;;41.80;20.60;;;;;;;4.27;89.48;97368.63;5091685;28;20107;-80
2022/09/29 05:57:47;;;;;;;79.07;26.98;;;;;;;4.20;88.28;97365.34;5109262;28;20027;-80
2022/09/29 06:00:12;;;;;;;45.10;21.13;;;;;;;3.92;90.55;97376.03;5100619;28;20076;-79
2022/09/29 06:02:38;;;;;;;26.83;16.50;;;;;;;4.50;88.55;97394.78;5106468;28;20072;-80
2022/09/29 06:05:03;;;;;;;24.40;16.02;;;;;;;4.83;86.93;97390.41;5107059;28;20412;-80
2022/09/29 06:07:29;;;;;;;40.45;20.05;;;;;;;4.67;87.50;97401.88;5105198;28;20475;-80
2022/09/29 06:09:54;;;;;;;24.65;15.18;;;;;;;4.60;88.85;97406.53;5110684;28;20072;-80
2022/09/29 06:12:19;;;;;;;38.80;21.75;;;;;;;5.09;86.18;97398.38;5104655;28;20036;-80
2022/09/29 06:14:45;;;;;;;25.08;15.23;;;;;;;4.98;87.92;97364.19;5108385;28;20642;-80
2022/09/29 06:17:10;;;;;;;26.08;14.90;;;;;;;6.38;81.61;97398.91;5106295;28;20020;-80
2022/09/29 06:19:35;;;;;;;23.80;14.63;;;;;;;6.77;79.65;97363.03;5110692;28;20066;-80
2022/09/29 06:22:01;;;;;;;21.27;13.07;;;;;;;7.84;75.64;97377.28;5099925;28;20064;-80
2022/09/29 06:24:26;;;;;;;18.30;11.75;;;;;;;8.08;75.06;97397.69;5088218;28;20464;-80
2022/09/29 06:26:51;;;;;;;26.77;15.88;;;;;;;7.56;75.78;97392.66;5105843;28;20020;-80
2022/09/29 06:29:17;;;;;;;33.50;15.27;;;;;;;7.52;77.25;97401.41;5101558;28;20076;-80
2022/09/29 06:31:42;;;;;;;18.38;11.70;;;;;;;7.75;75.87;97384.19;5107699;28;20494;-80
2022/09/29 06:34:08;;;;;;;15.98;10.18;;;;;;;8.12;75.09;97397.97;5067930;28;20513;-80
2022/09/29 06:39:21;;;;;;;44.05;14.93;;;;;;;8.03;75.43;97405.69;5098940;28;20157;-80
2022/09/29 06:41:52;;;;;;;15.68;10.98;;;;;;;7.96;76.39;97404.34;5109127;28;20118;-80
2022/09/29 06:44:19;;;;;;;15.75;10.30;;;;;;;8.28;74.56;97412.84;5106471;28;20019;-80
2022/09/29 06:46:44;;;;;;;39.20;14.20;;;;;;;8.03;75.84;97412.84;5104734;28;20655;-80
2022/09/29 06:49:12;;;;;;;14.70;9.75;;;;;;;8.09;75.95;97403.81;5117161;28;20112;-80
2022/09/29 06:51:37;;;;;;;38.17;12.85;;;;;;;7.45;78.87;97403.53;5099021;28;20534;-80
2022/09/29 06:54:03;;;;;;;18.52;10.95;;;;;;;7.24;80.41;97408.03;5100062;28;20040;-80
2022/09/29 06:56:28;;;;;;;19.02;10.88;;;;;;;7.27;80.27;97402.16;5104107;28;20076;-80
2022/09/29 06:58:54;;;;;;;35.33;13.68;;;;;;;6.87;81.83;97388.81;5089104;28;20039;-80
2022/09/29 07:01:20;;;;;;;24.30;11.98;;;;;;;6.96;82.47;97403.16;5089135;28;20020;-80
2022/09/29 07:03:45;;;;;;;28.92;13.63;;;;;;;7.57;78.44;97402.25;5106573;28;20444;-80
2022/09/29 07:06:11;;;;;;;34.03;12.77;;;;;;;6.61;84.49;97425.03;5074221;28;20069;-80
2022/09/29 07:08:37;;;;;;;14.13;9.43;;;;;;;7.41;81.03;97418.38;5106907;28;20049;-80
2022/09/29 07:11:04;;;;;;;12.90;9.00;;;;;;;7.73;79.65;97423.50;5106721;28;20031;-80
2022/09/29 07:13:29;;;;;;;26.20;12.70;;;;;;;7.33;80.93;97393.19;5107177;28;20032;-80
2022/09/29 07:15:55;;;;;;;29.70;12.48;;;;;;;7.64;80.39;97407.28;5106756;28;20036;-80
2022/09/29 07:18:20;;;;;;;14.65;8.45;;;;;;;8.55;76.28;97394.72;5107856;28;20076;-80
2022/09/29 07:20:46;;;;;;;13.18;9.70;;;;;;;8.02;79.78;97412.06;5106695;28;20023;-80
2022/09/29 07:23:12;;;;;;;30.80;11.80;;;;;;;7.30;82.65;97420.22;5108911;28;20034;-80
2022/09/29 07:25:38;;;;;;;34.58;12.25;;;;;;;6.86;85.64;97405.75;5100482;28;20391;-80
2022/09/29 07:28:03;;;;;;;11.35;8.38;;;;;;;7.92;79.14;97401.44;5108823;28;20040;-80
2022/09/29 07:30:30;;;;;;;26.02;10.93;;;;;;;7.28;83.25;97418.91;5107927;28;20031;-80
2022/09/29 07:32:56;;;;;;;23.92;13.20;;;;;;;7.47;83.25;97415.47;5108709;28;20548;-80
2022/09/29 07:35:22;;;;;;;34.83;12.55;;;;;;;6.44;88.12;97428.91;5106585;28;20106;-80
2022/09/29 07:37:51;;;;;;;27.38;13.52;;;;;;;5.82;89.64;97413.63;5107606;28;20379;-80
2022/09/29 07:40:16;;;;;;;24.30;11.57;;;;;;;6.07;90.49;97435.00;5107236;28;20055;-80
2022/09/29 07:42:41;;;;;;;12.93;9.27;;;;;;;6.74;88.10;97416.63;5113834;28;20051;-79
2022/09/29 07:45:07;;;;;;;17.55;11.15;;;;;;;7.09;86.15;97405.31;5110713;28;20027;-80
2022/09/29 07:47:32;;;;;;;24.02;11.40;;;;;;;6.78;86.75;97422.19;5096350;28;20031;-80
2022/09/29 07:49:58;;;;;;;23.95;11.70;;;;;;;6.88;87.81;97435.47;5091849;28;20395;-80
2022/09/29 07:52:23;;;;;;;10.32;7.95;;;;;;;7.95;81.24;97405.44;5075485;28;20506;-80
2022/09/29 07:54:49;;;;;;;17.50;10.10;;;;;;;8.32;80.85;97432.53;5093685;28;20122;-80
2022/09/29 07:57:14;;;;;;;20.77;10.73;;;;;;;7.58;85.43;97434.88;5110798;28;20041;-80
2022/09/29 07:59:39;;;;;;;24.25;12.30;;;;;;;7.32;84.91;97438.53;5108395;28;20741;-80
2022/09/29 08:02:06;;;;;;;24.02;12.35;;;;;;;6.76;88.38;97443.66;5104391;28;20042;-80
2022/09/29 08:04:32;;;;;;;16.35;10.57;;;;;;;8.01;83.33;97441.56;5093079;28;20058;-80
2022/09/29 08:06:57;;;;;;;13.05;9.07;;;;;;;8.21;81.40;97449.53;5108524;28;20050;-80
2022/09/29 08:09:23;;;;;;;10.35;7.25;;;;;;;8.26;80.78;97431.72;5098840;28;20028;-80
2022/09/29 08:11:49;;;;;;;16.88;9.38;;;;;;;8.25;82.25;97456.72;5095574;28;20027;-80
2022/09/29 08:14:14;;;;;;;10.23;8.02;;;;;;;8.31;82.15;97452.19;5087337;28;20109;-81
2022/09/29 08:16:39;;;;;;;13.82;9.90;;;;;;;8.24;83.23;97459.59;5111276;28;20027;-80
2022/09/29 08:19:05;;;;;;;7.03;6.28;;;;;;;8.90;78.91;97463.78;5110812;27;20028;-80
2022/09/29 08:21:35;;;;;;;13.90;9.18;;;;;;;7.78;84.20;97452.69;5110107;28;20436;-80
2022/09/29 08:24:06;;;;;;;7.85;6.30;;;;;;;8.73;80.01;97465.16;5109245;28;20012;-80
2022/09/29 08:26:34;;;;;;;6.47;5.72;;;;;;;9.11;77.73;97459.16;5109199;28;20479;-80
2022/09/29 08:29:01;;;;;;;8.73;6.70;;;;;;;9.42;76.66;97462.47;5108158;27;20106;-80
2022/09/29 08:31:27;;;;;;;6.38;5.13;;;;;;;9.72;75.41;97467.63;5103604;28;20024;-80
2022/09/29 08:33:56;;;;;;;6.30;5.53;;;;;;;9.90;74.70;97474.97;5109590;28;20100;-80
2022/09/29 08:36:22;;;;;;;15.38;11.00;;;;;;;8.87;81.21;97460.84;5107536;28;20467;-80
2022/09/29 08:38:53;;;;;;;13.27;10.30;;;;;;;8.94;81.03;97479.97;5111856;28;20108;-80
2022/09/29 08:41:57;;;;;;;18.48;11.05;;;;;;;8.54;83.23;97488.06;5106517;28;20016;-80
2022/09/29 08:44:35;;;;;;;16.67;11.93;;;;;;;9.01;81.27;97483.97;5052063;28;20040;-80
2022/09/29 08:47:06;;;;;;;21.00;13.32;;;;;;;8.15;85.57;97477.94;5109302;28;20043;-80
2022/09/29 08:49:36;;;;;;;16.17;11.10;;;;;;;8.31;84.85;97494.72;5101467;28;20031;-79
2022/09/29 08:52:11;;;;;;;8.73;6.97;;;;;;;9.52;77.52;97484.50;5111415;28;20031;-80
2022/09/29 08:54:40;;;;;;;17.60;12.82;;;;;;;8.52;83.62;97488.31;5108004;28;20463;-80
2022/09/29 08:57:18;;;;;;;21.85;13.45;;;;;;;8.63;84.36;97486.44;5087708;28;20360;-80
2022/09/29 08:59:55;;;;;;;29.35;13.90;;;;;;;8.76;83.66;97484.00;5110433;28;20024;-80
2022/09/29 09:02:58;;;;;;;19.23;13.10;;;;;;;8.71;85.20;97500.00;5104724;28;20037;-80
2022/09/29 09:05:33;;;;;;;21.98;14.38;;;;;;;8.90;83.95;97482.41;5111100;28;20042;-80
2022/09/29 09:08:13;;;;;;;15.05;10.27;;;;;;;9.09;81.45;97469.28;5102487;28;20115;-80
2022/09/29 09:10:46;;;;;;;16.52;12.55;;;;;;;9.61;80.65;97480.22;5108310;27;20084;-79
2022/09/29 09:13:17;;;;;;;18.30;13.60;;;;;;;9.07;83.50;97506.81;5107898;28;20088;-80
2022/09/29 09:15:57;;;;;;;21.27;14.95;;;;;;;8.93;84.35;97500.47;5110283;28;20046;-80
2022/09/29 09:18:37;;;;;;;21.58;14.55;;;;;;;8.81;85.12;97502.63;5105198;28;20028;-80
2022/09/29 09:21:07;;;;;;;17.23;12.57;;;;;;;9.48;81.20;97507.44;5107843;28;20118;-80
2022/09/29 09:23:41;;;;;;;23.55;13.93;;;;;;;9.44;83.71;97497.59;5104610;28;20043;-80
2022/09/29 09:26:09;;;;;;;19.75;14.00;;;;;;;9.28;83.42;97504.09;5103510;28;20020;-80
2022/09/29 09:28:46;;;;;;;21.50;14.35;;;;;;;8.73;85.35;97507.72;5110380;28;20035;-80
2022/09/29 09:31:32;;;;;;;15.68;10.82;;;;;;;9.07;82.74;97488.19;5104128;28;20029;-80
2022/09/29 09:34:09;;;;;;;22.63;15.93;;;;;;;9.51;82.44;97517.56;5104712;28;20110;-80
2022/09/29 09:36:40;;;;;;;10.00;8.02;;;;;;;10.23;77.63;97506.22;5101682;28;20020;-80
2022/09/29 09:39:13;;;;;;;22.35;14.25;;;;;;;9.74;81.09;97516.13;5108571;28;20027;-80
2022/09/29 09:41:41;;;;;;;11.43;9.52;;;;;;;9.79;81.31;97502.75;5111065;28;20027;-80
2022/09/29 09:44:18;;;;;;;12.68;9.10;;;;;;;10.63;75.93;97499.72;5106567;28;20026;-80
2022/09/29 09:46:48;;;;;;;16.60;11.27;;;;;;;10.73;77.74;97499.63;5103763;28;20088;-80
2022/09/29 09:49:25;;;;;;;9.55;7.65;;;;;;;10.77;76.84;97500.66;5085685;28;20023;-80
2022/09/29 09:52:08;;;;;;;;;;;;;;;11.06;75.54;97505.97;5108810;28;20438;-80
2022/09/29 09:54:40;;;;;;;17.50;14.13;;;;;;;10.97;78.20;97507.66;5097908;28;20283;-80
2022/09/29 09:57:14;;;;;;;12.80;9.00;;;;;;;11.18;74.96;97509.81;5108793;28;20050;-80
2022/09/29 09:59:50;;;;;;;11.10;7.70;;;;;;;11.33;73.73;97490.16;5108970;28;20028;-80
2022/09/29 10:02:19;;;;;;;23.42;15.40;;;;;;;10.96;77.93;97495.41;5100882;28;20024;-80
2022/09/29 10:04:48;;;;;;;21.25;14.18;;;;;;;11.23;76.33;97500.94;5073338;28;20041;-80
2022/09/29 10:07:13;;;;;;;11.70;8.85;;;;;;;11.10;75.02;97514.97;5107563;28;20107;-80
2022/09/29 10:09:39;;;;;;;10.90;8.57;;;;;;;11.11;75.77;97516.59;5108489;28;20118;-80
2022/09/29 10:12:04;;;;;;;10.57;9.18;;;;;;;11.27;75.65;97509.97;5103539;28;20828;-80
2022/09/29 10:14:31;;;;;;;12.15;10.65;;;;;;;11.30;76.04;97501.41;5105572;28;20039;-80
2022/09/29 10:17:02;;;;;;;13.57;10.80;;;;;;;11.44;75.92;97512.19;5109629;28;20076;-81
2022/09/29 10:20:06;;;;;;;15.65;10.18;;;;;;;11.25;77.22;97518.28;5091928;28;20061;-81
2022/09/29 10:22:33;;;;;;;10.93;8.43;;;;;;;11.55;74.27;97501.09;5096934;28;20417;-81
2022/09/29 10:25:18;;;;;;;11.25;8.93;;;;;;;11.55;74.72;97501.09;5108024;28;20024;-81
2022/09/29 10:27:48;;;;;;;11.52;9.30;;;;;;;11.66;74.65;97507.91;5107018;28;20107;-81
2022/09/29 10:30:23;;;;;;;16.65;13.52;;;;;;;11.08;77.43;97506.47;5106211;28;20031;-81
2022/09/29 10:32:59;;;;;;;22.00;14.00;;;;;;;10.51;80.50;97486.75;5105790;28;20469;-82
2022/09/29 10:35:45;;;;;;;16.90;13.77;;;;;;;10.68;79.92;97518.34;5104551;28;20028;-82
2022/09/29 10:38:16;;;;;;;;;;;;;;;11.34;76.00;97507.75;5100726;28;20516;-82
2022/09/29 10:41:18;;;;;;;12.05;9.75;;;;;;;10.88;79.91;97509.34;5101655;28;19912;-82
2022/09/29 10:43:45;;;;;;;16.60;11.88;;;;;;;11.28;78.03;97516.91;5036059;28;20021;-82
2022/09/29 10:46:31;;;;;;;19.17;14.63;;;;;;;10.34;81.57;97515.72;5084472;28;20035;-82
2022/09/29 10:49:28;;;;;;;;;;;;;;;10.24;83.24;97515.00;5106487;28;20055;-81
2022/09/29 10:52:02;;;;;;;20.48;15.02;;;;;;;10.01;82.88;97507.66;5088248;28;19973;-81
2022/09/29 10:54:32;;;;;;;22.88;15.80;;;;;;;10.12;82.68;97514.56;5105993;28;20459;-81
2022/09/29 10:57:00;;;;;;;21.77;15.70;;;;;;;10.12;84.04;97506.56;5108180;28;20123;-82
2022/09/29 10:59:26;;;;;;;19.52;14.00;;;;;;;9.98;83.71;97493.03;5105935;28;20059;-82
2022/09/29 11:01:58;;;;;;;15.23;13.13;;;;;;;10.72;81.76;97513.25;5085535;28;20028;-82
2022/09/29 11:04:28;;;;;;;9.32;8.13;;;;;;;11.75;78.09;97516.88;5099958;28;20484;-82
2022/09/29 11:06:54;;;;;;;12.73;9.57;;;;;;;11.26;80.19;97519.88;5105871;28;20050;-82
2022/09/29 11:09:20;;;;;;;9.55;8.30;;;;;;;11.69;78.40;97520.72;5102986;28;20367;-81
2022/09/29 11:11:45;;;;;;;15.13;10.98;;;;;;;11.77;79.08;97525.41;5106160;28;20027;-82
2022/09/29 11:14:30;;;;;;;15.55;11.90;;;;;;;11.45;75.24;97519.13;5106703;28;20061;-82
2022/09/29 11:16:59;;;;;;;14.77;11.55;;;;;;;11.14;76.51;97530.16;5111441;28;20036;-82
2022/09/29 11:19:25;;;;;;;16.38;12.43;;;;;;;10.79;78.66;97516.41;5108537;28;20119;-82
2022/09/29 11:21:50;;;;;;;13.35;11.15;;;;;;;10.84;78.87;97529.66;5096116;28;20035;-81
2022/09/29 11:24:53;;;;;;;13.75;9.93;;;;;;;11.49;78.88;97536.97;5112963;28;20516;-81
2022/09/29 11:27:31;;;;;;;12.38;9.60;;;;;;;11.21;77.47;97535.16;5108687;28;20034;-81
2022/09/29 11:30:10;;;;;;;12.38;10.35;;;;;;;10.92;76.01;97540.53;5108246;28;20050;-82
2022/09/29 11:33:04;;;;;;;9.52;8.52;;;;;;;10.77;75.53;97532.66;5102004;28;20035;-81
2022/09/29 11:36:07;;;;;;;10.98;8.25;;;;;;;10.89;75.59;97529.63;5105182;28;20035;-81
2022/09/29 11:38:51;;;;;;;5.70;5.20;;;;;;;12.25;73.46;97520.72;5105926;28;20055;-81
2022/09/29 11:41:34;;;;;;;9.15;6.03;;;;;;;12.68;72.48;97526.69;5110009;28;20424;-82
2022/09/29 11:44:27;;;;;;;6.55;5.28;;;;;;;12.63;73.52;97530.25;5110193;28;20039;-81
2022/09/29 11:46:55;;;;;;;7.28;5.63;;;;;;;13.33;70.22;97530.88;5109036;28;20027;-82